Time;durP1;ratioP1;P1;durP2;ratioP2;P2;SDS_P1;SDS_P2;PMS_P1;PMS_P2;Temp;Humidity;BMP_temperature;BMP_pressure;BME280_temperature;BME280_humidity;BME280_pressure;Samples;Min_cycle;Max_cycle;Signal;HPM_P1;HPM_P2
2022/09/14 00:00:59;;;;;;;7.10;2.03;;;12.10;99.90;;;;;;5073486;28;20043;-86
2022/09/14 00:03:25;;;;;;;6.10;1.85;;;12.00;99.90;;;;;;5074707;28;20044;-86
2022/09/14 00:05:51;;;;;;;3.40;1.90;;;12.00;99.90;;;;;;5075315;28;20070;-86
2022/09/14 00:08:17;;;;;;;6.55;1.92;;;12.10;99.90;;;;;;5074001;28;20071;-86
2022/09/14 00:10:45;;;;;;;9.95;2.08;;;12.00;99.90;;;;;;5074530;28;20049;-86
2022/09/14 00:13:12;;;;;;;6.10;2.10;;;12.00;99.90;;;;;;5058020;28;20036;-86
2022/09/14 00:15:42;;;;;;;4.85;2.00;;;12.00;99.90;;;;;;5073700;28;20086;-85
2022/09/14 00:18:09;;;;;;;6.78;1.85;;;12.00;99.90;;;;;;5074124;28;20036;-86
2022/09/14 00:20:36;;;;;;;7.25;2.15;;;12.00;99.90;;;;;;5074661;28;20060;-86
2022/09/14 00:23:02;;;;;;;11.27;2.28;;;12.00;99.90;;;;;;5073817;28;20045;-86
2022/09/14 00:25:29;;;;;;;5.72;1.88;;;12.00;99.90;;;;;;5074636;28;20052;-86
2022/09/14 00:27:56;;;;;;;4.55;1.80;;;12.00;99.90;;;;;;5074391;28;20076;-86
2022/09/14 00:30:22;;;;;;;6.07;1.98;;;12.10;99.90;;;;;;5074402;28;20390;-86
2022/09/14 00:32:49;;;;;;;5.43;2.05;;;12.00;99.90;;;;;;5074289;28;20551;-86
2022/09/14 00:35:15;;;;;;;4.75;1.77;;;12.00;99.90;;;;;;5073562;28;20033;-86
2022/09/14 00:37:41;;;;;;;6.88;2.15;;;12.00;99.90;;;;;;5056479;28;20056;-86
2022/09/14 00:40:07;;;;;;;6.10;1.90;;;12.00;99.90;;;;;;5073980;28;20403;-86
2022/09/14 00:42:33;;;;;;;6.97;2.10;;;12.00;99.90;;;;;;5056698;28;20048;-86
2022/09/14 00:45:02;;;;;;;7.03;1.98;;;12.10;99.90;;;;;;5074565;28;20478;-86
2022/09/14 00:47:31;;;;;;;5.97;1.85;;;12.10;99.90;;;;;;5074407;28;20102;-86
2022/09/14 00:49:58;;;;;;;7.03;1.98;;;12.10;99.90;;;;;;5074309;28;20071;-86
2022/09/14 00:52:28;;;;;;;6.38;1.90;;;12.10;99.90;;;;;;5057018;28;20071;-87
2022/09/14 00:54:57;;;;;;;6.95;1.67;;;12.10;99.90;;;;;;5074328;28;20058;-86
2022/09/14 00:57:24;;;;;;;6.82;2.20;;;12.10;99.90;;;;;;5073238;28;20051;-87
2022/09/14 00:59:52;;;;;;;7.20;2.00;;;12.10;99.90;;;;;;5073570;28;20180;-86
2022/09/14 01:02:20;;;;;;;5.50;2.00;;;12.10;99.90;;;;;;5073152;28;20040;-86
2022/09/14 01:04:47;;;;;;;5.40;2.10;;;12.10;99.90;;;;;;5055952;28;20135;-86
2022/09/14 01:07:43;;;;;;;3.10;1.80;;;12.20;99.90;;;;;;5074825;28;20102;-87
2022/09/14 01:10:09;;;;;;;5.38;2.08;;;12.10;99.90;;;;;;5072469;28;20044;-87
2022/09/14 01:12:40;;;;;;;5.00;1.85;;;12.10;99.90;;;;;;5073806;28;20477;-86
2022/09/14 01:15:45;;;;;;;4.05;1.63;;;12.10;99.90;;;;;;5073855;28;20048;-86
2022/09/14 01:18:26;;;;;;;7.35;2.15;;;12.00;99.90;;;;;;5018743;28;20055;-86
2022/09/14 01:21:09;;;;;;;7.63;1.88;;;12.00;99.90;;;;;;5018724;28;20052;-87
2022/09/14 01:23:53;;;;;;;3.80;1.75;;;12.00;99.90;;;;;;5059467;28;20057;-87
2022/09/14 01:26:28;;;;;;;5.75;1.90;;;12.00;99.90;;;;;;5056106;28;20056;-86
2022/09/14 01:29:24;;;;;;;5.13;2.10;;;12.00;99.90;;;;;;5072234;28;20115;-86
2022/09/14 01:32:02;;;;;;;6.68;2.10;;;11.90;99.90;;;;;;5073262;28;20045;-87
2022/09/14 01:34:36;;;;;;;7.00;2.10;;;11.90;99.90;;;;;;5072414;28;20072;-86
2022/09/14 01:37:13;;;;;;;4.95;2.13;;;11.90;99.90;;;;;;5072169;28;20055;-86
2022/09/14 01:39:47;;;;;;;5.40;1.90;;;11.90;99.90;;;;;;5072447;28;20044;-86
2022/09/14 01:42:15;;;;;;;6.90;2.60;;;11.80;99.90;;;;;;5072197;28;20379;-86
2022/09/14 01:44:46;;;;;;;8.90;2.38;;;11.70;99.90;;;;;;5072537;28;20048;-86
2022/09/14 01:47:19;;;;;;;7.18;2.47;;;11.70;99.90;;;;;;5073576;28;20417;-86
2022/09/14 01:50:12;;;;;;;6.07;2.00;;;11.70;99.90;;;;;;5071825;28;20504;-86
2022/09/14 01:53:03;;;;;;;6.53;2.35;;;11.60;99.90;;;;;;5072003;28;20047;-86
2022/09/14 01:55:34;;;;;;;5.38;2.47;;;11.60;99.90;;;;;;5072095;28;20061;-86
2022/09/14 01:58:09;;;;;;;5.53;2.25;;;11.50;99.90;;;;;;5064092;28;20044;-86
2022/09/14 02:00:41;;;;;;;7.35;2.72;;;11.50;99.90;;;;;;5071431;28;20059;-86
2022/09/14 02:03:22;;;;;;;7.03;3.10;;;11.50;99.90;;;;;;5091154;28;20457;-86
2022/09/14 02:06:15;;;;;;;9.82;2.78;;;11.50;99.90;;;;;;5053183;28;20056;-86
2022/09/14 02:08:41;;;;;;;8.20;2.83;;;11.50;99.90;;;;;;5073115;28;20461;-86
2022/09/14 02:11:07;;;;;;;5.00;2.78;;;11.40;99.90;;;;;;5088157;28;20140;-86
2022/09/14 02:13:33;;;;;;;6.93;3.00;;;11.40;99.90;;;;;;5055179;28;20051;-87
2022/09/14 02:15:58;;;;;;;8.32;3.03;;;11.40;99.90;;;;;;5073152;28;20102;-86
2022/09/14 02:18:24;;;;;;;6.90;2.90;;;11.40;99.90;;;;;;5055583;28;20045;-86
2022/09/14 02:20:59;;;;;;;8.30;2.90;;;11.40;99.90;;;;;;5072130;28;20397;-86
2022/09/14 02:23:25;;;;;;;7.75;3.10;;;11.40;99.90;;;;;;5073188;28;20405;-86
2022/09/14 02:25:51;;;;;;;5.68;3.15;;;11.40;99.90;;;;;;5071963;28;20073;-86
2022/09/14 02:28:17;;;;;;;10.57;3.35;;;11.40;99.90;;;;;;5054944;28;20075;-86
2022/09/14 02:31:07;;;;;;;6.18;2.95;;;11.50;99.90;;;;;;5071951;28;20083;-86
2022/09/14 02:33:54;;;;;;;5.57;3.00;;;11.50;99.90;;;;;;5072368;28;20056;-86
2022/09/14 02:36:49;;;;;;;8.73;3.20;;;11.50;99.90;;;;;;5072435;28;20513;-87
2022/09/14 02:39:46;;;;;;;10.60;3.08;;;11.50;99.90;;;;;;5055902;28;20059;-86
2022/09/14 02:42:21;;;;;;;7.43;3.30;;;11.60;99.90;;;;;;5070727;28;20091;-87
2022/09/14 02:45:12;;;;;;;8.70;3.20;;;11.60;99.90;;;;;;5071778;28;20558;-87
2022/09/14 02:47:58;;;;;;;;;;;11.60;99.90;;;;;;5057921;28;20045;-86
2022/09/14 02:50:42;;;;;;;6.97;3.95;;;11.60;99.90;;;;;;5044341;28;19924;-86
2022/09/14 02:53:27;;;;;;;7.13;3.40;;;11.60;99.90;;;;;;5071605;28;20127;-86
2022/09/14 02:56:06;;;;;;;8.35;3.08;;;11.60;99.90;;;;;;5048914;28;20046;-86
2022/09/14 02:58:37;;;;;;;6.85;2.97;;;11.70;99.90;;;;;;5053144;28;20040;-86
2022/09/14 03:01:05;;;;;;;7.43;3.20;;;11.70;99.90;;;;;;5071825;28;20059;-86
2022/09/14 03:03:31;;;;;;;7.57;3.20;;;11.70;99.90;;;;;;5071443;28;20048;-87
2022/09/14 03:05:57;;;;;;;6.38;3.33;;;11.70;99.90;;;;;;5072418;28;20520;-86
2022/09/14 03:08:25;;;;;;;7.57;3.30;;;11.70;99.90;;;;;;5055049;28;20553;-86
2022/09/14 03:10:51;;;;;;;7.18;3.25;;;11.70;99.90;;;;;;5072716;28;20174;-86
2022/09/14 03:13:16;;;;;;;5.90;3.35;;;11.80;99.90;;;;;;5055007;28;20538;-86
2022/09/14 03:15:42;;;;;;;6.03;3.15;;;11.80;99.90;;;;;;5071994;28;20173;-86
2022/09/14 03:18:08;;;;;;;7.65;3.50;;;11.80;99.90;;;;;;5071701;28;20040;-87
2022/09/14 03:20:35;;;;;;;4.55;3.45;;;11.90;99.90;;;;;;5071573;28;20507;-86
2022/09/14 03:23:02;;;;;;;7.10;3.83;;;11.90;99.90;;;;;;5071236;28;20086;-87
2022/09/14 03:25:28;;;;;;;8.75;3.58;;;11.90;99.90;;;;;;5071864;28;20123;-86
2022/09/14 03:27:56;;;;;;;5.55;3.10;;;11.90;99.90;;;;;;5072622;28;20619;-86
2022/09/14 03:30:23;;;;;;;5.68;3.47;;;11.90;99.90;;;;;;5070457;28;20198;-86
2022/09/14 03:32:48;;;;;;;6.95;3.25;;;11.90;99.90;;;;;;5073739;28;20559;-87
2022/09/14 03:35:15;;;;;;;6.93;2.40;;;11.90;99.90;;;;;;5074715;28;20098;-86
2022/09/14 03:37:42;;;;;;;4.18;3.15;;;12.00;99.90;;;;;;5040221;28;20124;-86
2022/09/14 03:40:09;;;;;;;10.07;3.38;;;12.00;99.90;;;;;;5075599;28;20124;-86
2022/09/14 03:42:36;;;;;;;6.20;3.83;;;12.10;99.90;;;;;;5041995;28;20041;-86
2022/09/14 03:45:02;;;;;;;7.57;3.30;;;12.00;99.90;;;;;;5075560;28;20054;-86
2022/09/14 03:47:28;;;;;;;4.90;3.20;;;12.00;99.90;;;;;;5057308;28;20052;-86
2022/09/14 03:49:54;;;;;;;8.95;3.80;;;12.10;99.90;;;;;;5074097;28;20055;-86
2022/09/14 03:52:19;;;;;;;8.95;3.65;;;12.10;99.90;;;;;;5074739;28;20036;-86
2022/09/14 03:54:45;;;;;;;6.60;3.20;;;12.10;99.90;;;;;;5075146;28;20047;-85
2022/09/14 03:57:11;;;;;;;4.72;3.40;;;12.10;99.90;;;;;;5074607;28;20056;-85
2022/09/14 03:59:36;;;;;;;7.60;4.28;;;12.10;99.90;;;;;;5057768;28;20056;-86
2022/09/14 04:02:02;;;;;;;11.00;3.97;;;12.10;99.90;;;;;;5073822;28;20451;-87
2022/09/14 04:04:28;;;;;;;10.00;4.22;;;12.10;99.90;;;;;;5075433;28;20482;-85
2022/09/14 04:06:54;;;;;;;9.85;4.53;;;12.10;99.90;;;;;;5074370;28;20504;-86
2022/09/14 04:09:20;;;;;;;7.45;4.03;;;12.10;99.90;;;;;;5075816;28;20493;-86
2022/09/14 04:11:46;;;;;;;5.90;3.08;;;12.00;99.90;;;;;;5074174;28;20052;-86
2022/09/14 04:14:12;;;;;;;6.32;4.43;;;12.10;99.90;;;;;;5075026;28;20048;-86
2022/09/14 04:16:40;;;;;;;6.32;4.30;;;12.10;99.90;;;;;;5073875;28;20048;-86
2022/09/14 04:19:06;;;;;;;6.15;3.70;;;12.10;99.90;;;;;;5074937;28;20052;-86
2022/09/14 04:21:32;;;;;;;8.05;4.13;;;12.00;99.90;;;;;;5073817;28;20048;-85
2022/09/14 04:23:58;;;;;;;7.65;4.80;;;12.10;99.90;;;;;;5074162;28;20044;-85
2022/09/14 04:26:27;;;;;;;9.32;4.93;;;12.10;99.90;;;;;;5074946;28;20108;-85
2022/09/14 04:28:54;;;;;;;11.85;5.10;;;12.10;99.90;;;;;;5074808;28;20113;-85
2022/09/14 04:31:20;;;;;;;10.88;5.15;;;12.10;99.90;;;;;;5071808;28;20041;-86
2022/09/14 04:33:49;;;;;;;9.75;5.25;;;12.20;99.90;;;;;;5073406;28;20047;-86
2022/09/14 04:36:17;;;;;;;9.85;5.40;;;12.20;99.90;;;;;;5074368;28;20048;-85
2022/09/14 04:38:43;;;;;;;16.02;5.70;;;12.30;99.90;;;;;;5060031;28;20040;-85
2022/09/14 04:41:13;;;;;;;10.63;5.47;;;12.30;99.90;;;;;;5055027;28;20045;-86
2022/09/14 04:43:39;;;;;;;9.02;5.07;;;12.30;99.90;;;;;;5054620;28;20053;-85
2022/09/14 04:46:08;;;;;;;10.98;5.53;;;12.30;99.90;;;;;;5068559;28;20067;-86
2022/09/14 04:48:34;;;;;;;8.07;5.32;;;12.30;99.90;;;;;;5061516;28;20119;-85
2022/09/14 04:51:02;;;;;;;11.02;5.38;;;12.30;99.90;;;;;;5062333;28;20103;-86
2022/09/14 04:53:27;;;;;;;9.52;4.97;;;12.40;99.90;;;;;;5054788;28;20053;-86
2022/09/14 04:56:05;;;;;;;8.68;5.35;;;12.40;99.90;;;;;;5036830;28;20066;-86
2022/09/14 04:58:31;;;;;;;8.30;5.20;;;12.40;99.90;;;;;;5066026;28;20055;-86
2022/09/14 05:01:07;;;;;;;13.15;5.53;;;12.40;99.90;;;;;;5071316;28;20094;-86
2022/09/14 05:03:33;;;;;;;9.07;5.20;;;12.40;99.90;;;;;;5072649;28;20049;-86
2022/09/14 05:06:07;;;;;;;11.32;5.65;;;12.40;99.90;;;;;;5074508;28;20389;-86
2022/09/14 05:08:35;;;;;;;9.23;5.10;;;12.40;99.90;;;;;;5074055;28;20115;-86
2022/09/14 05:11:01;;;;;;;6.75;4.85;;;12.50;99.90;;;;;;5073913;28;20060;-85
2022/09/14 05:13:27;;;;;;;11.88;5.57;;;12.50;99.90;;;;;;5073893;28;20107;-86
2022/09/14 05:15:53;;;;;;;10.48;5.47;;;12.50;99.90;;;;;;5073092;28;20124;-86
2022/09/14 05:18:19;;;;;;;6.75;5.40;;;12.50;99.90;;;;;;5073191;28;20048;-86
2022/09/14 05:20:45;;;;;;;12.35;5.10;;;12.50;99.90;;;;;;5056479;28;20044;-85
2022/09/14 05:23:11;;;;;;;9.27;5.07;;;12.50;99.90;;;;;;5074009;28;20045;-86
2022/09/14 05:25:37;;;;;;;11.05;5.30;;;12.50;99.90;;;;;;5072577;28;20047;-86
2022/09/14 05:28:03;;;;;;;9.75;5.07;;;12.50;99.90;;;;;;5074061;28;20044;-86
2022/09/14 05:30:28;;;;;;;11.30;5.10;;;12.60;99.90;;;;;;5053532;28;20053;-86
2022/09/14 05:32:54;;;;;;;9.20;5.30;;;12.60;99.90;;;;;;5052007;28;20064;-86
2022/09/14 05:35:20;;;;;;;9.85;4.68;;;12.60;99.90;;;;;;5053412;28;20072;-86
2022/09/14 05:37:45;;;;;;;7.38;5.18;;;12.60;99.90;;;;;;5052505;28;20049;-86
2022/09/14 05:40:11;;;;;;;12.15;5.10;;;12.60;99.90;;;;;;5052733;28;20221;-86
2022/09/14 05:42:37;;;;;;;9.38;5.10;;;12.70;99.90;;;;;;5054028;28;20049;-86
2022/09/14 05:45:03;;;;;;;10.40;5.00;;;12.80;99.90;;;;;;5052919;28;20536;-86
2022/09/14 05:47:29;;;;;;;7.80;4.50;;;12.70;99.90;;;;;;5036316;28;20411;-85
2022/09/14 05:49:55;;;;;;;10.05;4.63;;;12.70;99.90;;;;;;5053610;28;20445;-85
2022/09/14 05:52:21;;;;;;;13.98;4.82;;;12.80;99.90;;;;;;5052614;28;20053;-85
2022/09/14 05:54:47;;;;;;;8.77;4.80;;;12.80;99.90;;;;;;5052828;28;20045;-85
2022/09/14 05:57:13;;;;;;;8.07;5.05;;;12.80;99.90;;;;;;5052444;28;20052;-85
2022/09/14 05:59:38;;;;;;;13.68;4.68;;;12.90;99.90;;;;;;5053563;28;20045;-85
2022/09/14 06:02:05;;;;;;;9.25;4.57;;;12.90;99.90;;;;;;5085910;28;20452;-86
2022/09/14 06:04:30;;;;;;;9.75;4.70;;;13.00;99.90;;;;;;5053376;28;20098;-86
2022/09/14 06:06:56;;;;;;;11.05;4.93;;;13.00;99.90;;;;;;5053505;28;20044;-85
2022/09/14 06:09:21;;;;;;;8.25;3.92;;;13.00;99.90;;;;;;5053359;28;20099;-86
2022/09/14 06:11:47;;;;;;;11.25;5.15;;;13.00;99.90;;;;;;5053869;28;20490;-85
2022/09/14 06:14:18;;;;;;;12.32;4.75;;;13.10;99.90;;;;;;5053069;28;20055;-85
2022/09/14 06:16:44;;;;;;;12.57;5.38;;;13.20;99.90;;;;;;5054151;28;20053;-87
2022/09/14 06:19:11;;;;;;;7.90;4.68;;;13.20;99.90;;;;;;5052818;28;20064;-87
2022/09/14 06:21:36;;;;;;;8.52;5.03;;;13.20;99.90;;;;;;5054096;28;20068;-87
2022/09/14 06:24:02;;;;;;;9.13;5.05;;;13.20;99.90;;;;;;5035743;28;20421;-87
2022/09/14 06:26:29;;;;;;;9.20;4.70;;;13.30;99.90;;;;;;5053375;28;20045;-87
2022/09/14 06:28:54;;;;;;;8.73;4.85;;;13.30;99.90;;;;;;5052268;28;20413;-87
2022/09/14 06:31:24;;;;;;;8.90;3.97;;;13.40;99.90;;;;;;5051816;28;20056;-87
2022/09/14 06:33:50;;;;;;;10.32;4.38;;;13.40;99.90;;;;;;5085780;28;20490;-87
2022/09/14 06:36:25;;;;;;;9.27;4.18;;;13.40;99.90;;;;;;5085216;28;20060;-87
2022/09/14 06:38:51;;;;;;;9.32;4.50;;;13.60;99.90;;;;;;5052692;28;20061;-87
2022/09/14 06:41:21;;;;;;;11.10;4.25;;;13.60;99.90;;;;;;5053436;28;20545;-87
2022/09/14 06:43:48;;;;;;;6.90;2.87;;;13.70;99.90;;;;;;5086950;28;20041;-87
2022/09/14 06:46:20;;;;;;;7.85;2.90;;;13.70;99.90;;;;;;5053697;28;20052;-87
2022/09/14 06:48:53;;;;;;;10.35;3.80;;;13.80;99.90;;;;;;5052195;28;20513;-87
2022/09/14 06:51:19;;;;;;;12.15;3.90;;;13.90;99.90;;;;;;5053425;28;20136;-87
2022/09/14 06:53:46;;;;;;;15.05;3.90;;;14.00;99.90;;;;;;5053788;28;20044;-86
2022/09/14 06:56:13;;;;;;;7.50;2.97;;;14.10;99.90;;;;;;5054805;28;20127;-87
2022/09/14 06:58:39;;;;;;;10.27;3.63;;;14.20;99.90;;;;;;5086961;28;20045;-87
2022/09/14 07:01:06;;;;;;;7.95;3.63;;;14.30;99.90;;;;;;5055781;28;20044;-87
2022/09/14 07:03:35;;;;;;;10.50;4.43;;;14.30;99.90;;;;;;5054870;28;20513;-89
2022/09/14 07:06:09;;;;;;;13.85;4.38;;;14.40;99.90;;;;;;5052695;28;20098;-87
2022/09/14 07:08:36;;;;;;;6.53;3.70;;;14.50;99.90;;;;;;5089938;28;20445;-87
2022/09/14 07:11:04;;;;;;;6.72;3.65;;;14.60;99.90;;;;;;5089623;28;20517;-86
2022/09/14 07:13:30;;;;;;;5.57;3.35;;;14.60;99.90;;;;;;5089886;28;20045;-87
2022/09/14 07:15:56;;;;;;;7.05;4.28;;;14.70;99.90;;;;;;5089620;28;20045;-88
2022/09/14 07:18:26;;;;;;;7.80;3.60;;;14.80;99.90;;;;;;5089073;28;20115;-87
2022/09/14 07:20:53;;;;;;;11.02;3.47;;;14.80;99.90;;;;;;5072427;28;20204;-87
2022/09/14 07:23:18;;;;;;;9.43;3.47;;;14.90;99.90;;;;;;5056872;28;20099;-87
2022/09/14 07:25:44;;;;;;;8.57;3.25;;;15.00;99.90;;;;;;5056742;28;20048;-87
2022/09/14 07:28:10;;;;;;;13.00;3.60;;;15.00;99.90;;;;;;5055587;28;20124;-87
2022/09/14 07:30:37;;;;;;;7.05;3.25;;;15.10;99.90;;;;;;5072762;28;20085;-88
2022/09/14 07:33:06;;;;;;;11.50;4.90;;;15.20;99.90;;;;;;5056674;28;20053;-87
2022/09/14 07:35:32;;;;;;;6.60;2.70;;;15.30;99.90;;;;;;5072259;28;20060;-88
2022/09/14 07:37:58;;;;;;;11.57;2.65;;;15.40;99.90;;;;;;5056748;28;20049;-87
2022/09/14 07:40:25;;;;;;;6.97;2.10;;;15.40;99.90;;;;;;5056093;28;20040;-87
2022/09/14 07:42:54;;;;;;;2.70;1.75;;;15.40;99.90;;;;;;5089015;28;20376;-88
2022/09/14 07:45:20;;;;;;;7.20;2.05;;;15.50;99.90;;;;;;5056230;28;20045;-87
2022/09/14 07:47:46;;;;;;;4.75;1.60;;;15.60;99.90;;;;;;5055638;28;20372;-87
2022/09/14 07:50:13;;;;;;;4.55;1.55;;;15.80;99.90;;;;;;5056832;28;20132;-86
2022/09/14 07:52:39;;;;;;;10.00;2.08;;;15.80;99.90;;;;;;5056640;28;20056;-88
2022/09/14 07:55:06;;;;;;;13.85;2.25;;;15.90;99.90;;;;;;5056352;28;20397;-88
2022/09/14 07:57:31;;;;;;;6.53;1.90;;;15.90;99.90;;;;;;5055213;28;20452;-88
2022/09/14 07:59:57;;;;;;;7.22;2.10;;;16.00;99.90;;;;;;5088011;28;20044;-88
2022/09/14 08:02:24;;;;;;;5.78;1.90;;;16.10;99.90;;;;;;5088329;28;20045;-88
2022/09/14 08:04:53;;;;;;;7.32;1.65;;;16.10;99.90;;;;;;5071652;28;20359;-87
2022/09/14 08:07:19;;;;;;;8.43;1.65;;;16.20;99.90;;;;;;5056498;28;20045;-88
2022/09/14 08:09:45;;;;;;;7.43;1.73;;;16.20;99.90;;;;;;5055611;28;20491;-88
2022/09/14 08:12:15;;;;;;;5.97;1.63;;;16.30;99.90;;;;;;5055750;28;20213;-88
2022/09/14 08:14:41;;;;;;;9.30;1.60;;;16.40;99.90;;;;;;5088277;28;20208;-88
2022/09/14 08:17:09;;;;;;;5.03;1.17;;;16.50;99.90;;;;;;5055475;28;20448;-88
2022/09/14 08:19:34;;;;;;;4.55;1.20;;;16.60;99.90;;;;;;5054777;28;20045;-88
2022/09/14 08:22:00;;;;;;;6.18;1.10;;;16.60;99.90;;;;;;5055742;28;20540;-88
2022/09/14 08:24:26;;;;;;;8.73;1.45;;;16.70;99.90;;;;;;5055407;28;20272;-89
2022/09/14 08:26:52;;;;;;;7.60;0.95;;;16.80;99.90;;;;;;5070810;28;20459;-88
2022/09/14 08:29:18;;;;;;;5.00;1.27;;;16.90;99.90;;;;;;5087604;28;20128;-88
2022/09/14 08:31:45;;;;;;;5.68;1.08;;;16.90;99.90;;;;;;5087666;28;20128;-87
2022/09/14 08:34:12;;;;;;;5.47;1.00;;;16.90;99.90;;;;;;5055201;28;20558;-88
2022/09/14 08:36:39;;;;;;;10.73;1.33;;;17.00;99.90;;;;;;5037539;28;20941;-88
2022/09/14 08:39:10;;;;;;;4.05;1.25;;;17.00;99.90;;;;;;5055329;28;20119;-88
2022/09/14 08:41:50;;;;;;;5.82;1.20;;;17.00;99.90;;;;;;5055162;28;20395;-88
2022/09/14 08:44:29;;;;;;;6.60;2.30;;;17.00;99.90;;;;;;5087897;28;20063;-88
2022/09/14 08:46:59;;;;;;;9.98;1.98;;;17.10;99.90;;;;;;5088272;28;20482;-88
2022/09/14 08:50:01;;;;;;;6.32;1.15;;;17.20;99.90;;;;;;5054988;28;20053;-88
2022/09/14 08:52:42;;;;;;;4.47;0.98;;;17.40;99.90;;;;;;5055222;28;20052;-88
2022/09/14 08:55:30;;;;;;;5.65;0.88;;;17.50;99.90;;;;;;5087413;28;20045;-88
2022/09/14 08:58:32;;;;;;;9.85;1.25;;;17.70;99.90;;;;;;5087527;28;20055;-88
2022/09/14 09:01:22;;;;;;;8.43;1.00;;;17.90;99.90;;;;;;5087242;28;20057;-87
2022/09/14 09:04:16;;;;;;;7.50;1.02;;;18.00;99.90;;;;;;5087479;28;20433;-88
2022/09/14 09:07:03;;;;;;;5.32;0.98;;;18.00;99.90;;;;;;5087162;28;20055;-88
2022/09/14 09:09:42;;;;;;;4.82;0.90;;;18.10;99.90;;;;;;5069733;28;20440;-88
2022/09/14 09:12:12;;;;;;;4.65;0.68;;;18.20;99.90;;;;;;5054823;28;20407;-88
2022/09/14 09:14:43;;;;;;;1.90;0.60;;;18.30;99.90;;;;;;5087151;28;20543;-88
2022/09/14 09:17:32;;;;;;;4.85;0.90;;;18.50;99.90;;;;;;5086882;28;20494;-88
2022/09/14 09:20:16;;;;;;;5.50;0.88;;;18.80;99.90;;;;;;5087007;28;20071;-88
2022/09/14 09:22:47;;;;;;;4.40;0.98;;;19.10;99.90;;;;;;5053196;28;20414;-88
2022/09/14 09:25:22;;;;;;;5.90;0.93;;;19.50;99.90;;;;;;5054127;28;20056;-88
2022/09/14 09:27:57;;;;;;;9.05;0.90;;;19.70;99.90;;;;;;5054388;28;20041;-88
2022/09/14 09:30:22;;;;;;;7.50;0.77;;;19.80;99.90;;;;;;5087087;28;20049;-89
2022/09/14 09:32:48;;;;;;;8.38;0.65;;;19.80;99.90;;;;;;5070183;28;20478;-89
2022/09/14 09:35:18;;;;;;;7.45;0.60;;;19.60;99.90;;;;;;5053061;28;20044;-89
2022/09/14 09:37:46;;;;;;;4.35;0.40;;;19.60;99.90;;;;;;5054116;28;20049;-89
2022/09/14 09:40:26;;;;;;;2.00;0.75;;;19.60;99.90;;;;;;5054760;28;20059;-88
2022/09/14 09:43:18;;;;;;;3.92;0.63;;;19.70;99.90;;;;;;5072999;28;20147;-88
2022/09/14 09:46:02;;;;;;;1.85;0.35;;;19.80;99.90;;;;;;5054664;28;20056;-89
2022/09/14 09:48:38;;;;;;;3.03;0.50;;;19.70;99.90;;;;;;5053741;28;20090;-90
2022/09/14 09:51:06;;;;;;;2.78;0.50;;;19.70;99.90;;;;;;5087640;28;20486;-89
2022/09/14 09:53:35;;;;;;;3.03;0.40;;;19.60;99.90;;;;;;5054202;28;20123;-90
2022/09/14 09:56:02;;;;;;;5.43;0.52;;;19.50;99.90;;;;;;5086933;28;20053;-89
2022/09/14 09:58:33;;;;;;;3.20;0.98;;;19.40;99.90;;;;;;5060798;28;20052;-89
2022/09/14 10:01:25;;;;;;;3.88;0.45;;;19.30;99.90;;;;;;5101837;28;20064;-90
2022/09/14 10:04:17;;;;;;;3.20;0.57;;;19.40;99.90;;;;;;5071625;28;20084;-90
2022/09/14 10:06:53;;;;;;;3.70;0.52;;;20.00;99.90;;;;;;5104205;28;20049;-88
2022/09/14 10:09:25;;;;;;;2.17;0.40;;;20.30;99.90;;;;;;5068736;28;20104;-89
2022/09/14 10:12:03;;;;;;;3.35;0.60;;;20.40;99.90;;;;;;5092863;28;20049;-89
2022/09/14 10:14:35;;;;;;;2.70;0.30;;;20.60;99.90;;;;;;5086460;28;20053;-88
2022/09/14 10:17:16;;;;;;;1.48;0.35;;;21.10;99.90;;;;;;5086474;28;20059;-88
2022/09/14 10:19:51;;;;;;;2.75;0.40;;;21.30;99.90;;;;;;5069304;28;20081;-89
2022/09/14 10:22:16;;;;;;;3.13;0.35;;;21.30;99.90;;;;;;5086749;28;20098;-89
2022/09/14 10:25:01;;;;;;;2.33;0.60;;;21.10;99.90;;;;;;5053671;28;20052;-89
2022/09/14 10:27:55;;;;;;;2.90;0.45;;;20.90;99.90;;;;;;5053425;28;20052;-89
2022/09/14 10:30:38;;;;;;;2.58;0.50;;;20.80;99.90;;;;;;5049574;28;20060;-89
2022/09/14 10:33:09;;;;;;;2.45;0.60;;;20.80;99.90;;;;;;5085749;28;20045;-89
2022/09/14 10:35:45;;;;;;;3.70;0.40;;;21.00;99.90;;;;;;5086056;28;20048;-88
2022/09/14 10:38:27;;;;;;;2.20;0.50;;;21.20;99.90;;;;;;5053422;28;20122;-89
2022/09/14 10:41:09;;;;;;;3.33;0.55;;;21.20;99.90;;;;;;5070703;28;20048;-89
2022/09/14 10:44:05;;;;;;;5.47;0.50;;;21.30;99.90;;;;;;5090315;28;20084;-88
2022/09/14 10:46:49;;;;;;;4.15;0.57;;;21.40;99.90;;;;;;5058229;28;20128;-89
2022/09/14 10:49:31;;;;;;;2.10;0.40;;;21.50;99.90;;;;;;5090321;28;20398;-89
2022/09/14 10:51:56;;;;;;;2.38;0.47;;;21.40;99.90;;;;;;5090970;28;20404;-89
2022/09/14 10:54:51;;;;;;;3.25;0.47;;;21.60;99.90;;;;;;5090273;28;20044;-89
2022/09/14 10:57:32;;;;;;;4.28;0.60;;;21.80;99.90;;;;;;5046498;28;20049;-89
2022/09/14 11:00:11;;;;;;;2.42;0.45;;;22.10;99.90;;;;;;5090696;28;20045;-89
2022/09/14 11:03:24;;;;;;;2.20;0.70;;;22.10;99.90;;;;;;5090326;28;20045;-89
2022/09/14 11:06:07;;;;;;;2.92;0.57;;;21.70;99.90;;;;;;5042451;28;20053;-89
2022/09/14 11:08:52;;;;;;;6.03;0.70;;;21.10;99.90;;;;;;5058669;28;20045;-89
2022/09/14 11:11:21;;;;;;;2.33;0.50;;;20.70;99.90;;;;;;5057449;28;20063;-88
2022/09/14 11:14:21;;;;;;;2.45;0.40;;;20.40;99.90;;;;;;5089256;28;20136;-89
2022/09/14 11:17:18;;;;;;;1.80;0.47;;;20.20;99.90;;;;;;5089612;28;20048;-89
2022/09/14 11:19:59;;;;;;;3.35;0.70;;;20.20;99.90;;;;;;5038090;28;20057;-88
2022/09/14 11:22:44;;;;;;;2.67;0.57;;;20.20;99.90;;;;;;5056427;28;20083;-89
2022/09/14 11:25:38;;;;;;;2.22;0.57;;;20.30;99.90;;;;;;5089327;28;20049;-89
2022/09/14 11:28:37;;;;;;;3.33;0.52;;;20.90;99.90;;;;;;5090254;28;20071;-88
2022/09/14 11:31:10;;;;;;;5.38;0.82;;;22.00;99.90;;;;;;5058530;28;20075;-88
2022/09/14 11:33:58;;;;;;;2.15;0.70;;;22.80;99.90;;;;;;5056346;28;20060;-88
2022/09/14 11:36:29;;;;;;;2.20;0.57;;;23.50;99.90;;;;;;5057048;28;20048;-88
2022/09/14 11:39:00;;;;;;;2.20;0.50;;;23.70;99.50;;;;;;5072731;28;20128;-89
2022/09/14 11:41:44;;;;;;;2.30;0.60;;;23.40;99.90;;;;;;5092473;28;20068;-90
2022/09/14 11:44:22;;;;;;;2.95;0.35;;;23.20;99.30;;;;;;5073990;28;20136;-89
2022/09/14 11:47:04;;;;;;;3.17;0.47;;;22.60;97.10;;;;;;5057974;28;20126;-88
2022/09/14 11:49:33;;;;;;;2.28;0.43;;;22.10;99.60;;;;;;5056503;28;20047;-88
2022/09/14 11:52:22;;;;;;;2.00;0.60;;;21.70;99.90;;;;;;5072380;28;20136;-88
2022/09/14 11:54:49;;;;;;;1.95;0.52;;;21.40;99.90;;;;;;5071363;28;20072;-88
2022/09/14 11:57:19;;;;;;;3.08;0.57;;;21.00;99.90;;;;;;5053650;28;20041;-89
2022/09/14 11:59:49;;;;;;;2.60;0.50;;;20.80;99.90;;;;;;5088629;28;20056;-89
2022/09/14 12:02:21;;;;;;;3.33;0.57;;;20.50;99.90;;;;;;5056939;28;20037;-88
2022/09/14 12:05:08;;;;;;;4.55;0.45;;;20.40;99.90;;;;;;5055261;28;20557;-88
2022/09/14 12:07:41;;;;;;;2.30;0.60;;;20.30;99.90;;;;;;5056477;28;20052;-88
2022/09/14 12:10:13;;;;;;;1.75;0.30;;;20.10;99.90;;;;;;5037745;28;20140;-88
2022/09/14 12:12:39;;;;;;;5.68;0.80;;;20.00;99.90;;;;;;5054884;28;20141;-88
2022/09/14 12:15:24;;;;;;;2.33;0.68;;;19.90;99.90;;;;;;5055258;28;20061;-88
2022/09/14 12:18:23;;;;;;;4.55;0.60;;;20.00;99.90;;;;;;5038372;28;20494;-90
2022/09/14 12:20:58;;;;;;;4.30;0.50;;;20.60;99.90;;;;;;5055479;28;20049;-88
2022/09/14 12:23:36;;;;;;;4.03;0.40;;;21.70;99.90;;;;;;5055648;28;20092;-89
2022/09/14 12:26:11;;;;;;;2.33;0.50;;;22.50;99.90;;;;;;5054703;28;20053;-89
2022/09/14 12:28:36;;;;;;;3.72;0.82;;;23.00;93.60;;;;;;5054563;28;20406;-90
2022/09/14 12:31:02;;;;;;;1.85;0.40;;;23.40;82.90;;;;;;5054410;28;20048;-90
2022/09/14 12:33:31;;;;;;;3.13;0.70;;;23.80;79.40;;;;;;5054742;28;20497;-90
2022/09/14 12:35:57;;;;;;;1.42;0.40;;;24.40;78.00;;;;;;5054595;28;20136;-89
2022/09/14 12:38:29;;;;;;;3.92;0.60;;;24.70;71.00;;;;;;5054737;28;20052;-88
2022/09/14 12:40:55;;;;;;;6.20;0.68;;;24.90;73.10;;;;;;5054472;28;20047;-90
2022/09/14 12:43:33;;;;;;;4.55;0.68;;;24.90;68.90;;;;;;5055374;28;20413;-89
2022/09/14 12:46:20;;;;;;;3.25;0.68;;;24.40;73.70;;;;;;5054690;28;20051;-90
2022/09/14 12:48:46;;;;;;;1.15;0.47;;;23.70;83.80;;;;;;5088666;28;20095;-89
2022/09/14 12:51:21;;;;;;;4.10;0.50;;;23.10;90.50;;;;;;5054504;28;20390;-89
2022/09/14 12:54:08;;;;;;;4.65;0.77;;;22.50;95.00;;;;;;5054329;28;20058;-89
2022/09/14 12:56:43;;;;;;;4.13;0.70;;;22.10;97.70;;;;;;5054021;28;20052;-89
2022/09/14 12:59:32;;;;;;;2.67;0.80;;;21.50;96.70;;;;;;5054071;28;20072;-89
2022/09/14 13:02:48;;;;;;;2.08;0.45;;;21.20;99.90;;;;;;5053642;28;20453;-90
2022/09/14 13:05:16;;;;;;;3.30;0.60;;;20.80;99.90;;;;;;5053781;28;20052;-89
2022/09/14 13:07:43;;;;;;;2.55;0.70;;;20.50;99.90;;;;;;5053979;28;20060;-89
2022/09/14 13:10:18;;;;;;;4.40;0.80;;;20.40;99.90;;;;;;5054363;28;20509;-89
2022/09/14 13:12:45;;;;;;;3.00;0.60;;;20.30;99.90;;;;;;5053610;28;20142;-89